Terminal Aerodrome Forecast
Issued by NWS

Home | Current Version | Previous Version | Text Only | Print | Product List | Glossary On
Versions: 1 2 3 4 5 6 7 8 9 10 11 12 13 14 15 16 17 18 19 20 21 22 23 24 25 26
152
FTUS44 KTSA 161125
TAFMLC
TAF
KMLC 161125Z 1612/1712 18006KT P6SM VCSH SCT070 SCT250
     FM161500 20010G17KT P6SM OVC050
     FM170200 19010KT P6SM SCT050
     FM170400 19008KT P6SM VCTS SCT050CB BKN250
      TEMPO 1704/1707 3SM TSRA BKN040CB
     FM170700 20007KT P6SM SCT080 BKN250=

USA.gov is the U.S. government's official web portal to all federal, state and local government web resources and services.